Time;durP1;ratioP1;P1;durP2;ratioP2;P2;SDS_P1;SDS_P2;PMS_P1;PMS_P2;Temp;Humidity;BMP_temperature;BMP_pressure;BME280_temperature;BME280_humidity;BME280_pressure;Samples;Min_cycle;Max_cycle;Signal;HPM_P1;HPM_P2
2021/04/04 00:01:25;;;;;;;13.82;8.02;;;205.10;1612.80;;;;;;5096588;28;20032;-79
2021/04/04 00:03:51;;;;;;;13.45;8.32;;;205.10;1612.80;;;;;;5096665;28;20024;-80
2021/04/04 00:06:17;;;;;;;12.40;7.82;;;205.10;1612.80;;;;;;5096630;28;20024;-79
2021/04/04 00:08:43;;;;;;;12.10;7.57;;;205.00;1612.80;;;;;;5096255;28;20042;-80
2021/04/04 00:11:09;;;;;;;13.13;7.20;;;205.00;1612.80;;;;;;5096138;28;20016;-78
2021/04/04 00:13:35;;;;;;;11.30;7.40;;;205.00;1612.80;;;;;;5096505;28;20412;-80
2021/04/04 00:16:01;;;;;;;13.18;7.47;;;205.00;1612.80;;;;;;5097004;28;20016;-81
2021/04/04 00:18:27;;;;;;;12.13;7.13;;;205.00;1612.80;;;;;;5096370;28;20024;-80
2021/04/04 00:20:52;;;;;;;11.18;7.85;;;204.90;1612.80;;;;;;5112448;28;20098;-80
2021/04/04 00:23:18;;;;;;;14.75;7.75;;;204.90;1612.80;;;;;;5096614;28;20024;-80
2021/04/04 00:25:44;;;;;;;14.52;7.85;;;204.80;1612.80;;;;;;5096668;28;20048;-79
2021/04/04 00:28:10;;;;;;;15.27;7.30;;;204.80;1612.80;;;;;;5096747;28;20044;-80
2021/04/04 00:30:36;;;;;;;13.43;7.78;;;204.80;1612.80;;;;;;5096522;28;20027;-80
2021/04/04 00:33:02;;;;;;;15.88;8.20;;;204.80;1638.40;;;;;;5096306;28;20059;-78
2021/04/04 00:35:28;;;;;;;15.45;8.25;;;204.80;1612.80;;;;;;5096398;28;20031;-81
2021/04/04 00:37:54;;;;;;;12.48;8.20;;;204.80;1638.40;;;;;;5095722;28;20044;-73
2021/04/04 00:40:25;;;;;;;12.35;7.60;;;204.80;1638.40;;;;;;5093963;28;20024;-73
2021/04/04 00:42:51;;;;;;;13.35;7.03;;;204.80;1638.40;;;;;;5095588;28;20031;-78
2021/04/04 00:45:20;;;;;;;10.73;6.78;;;204.80;1638.40;;;;;;5095897;28;20028;-79
2021/04/04 00:47:46;;;;;;;14.43;7.85;;;204.80;1638.40;;;;;;5095649;28;20024;-73
2021/04/04 00:50:13;;;;;;;11.60;7.00;;;204.80;1638.40;;;;;;5095713;28;20024;-69
2021/04/04 00:52:39;;;;;;;10.40;7.05;;;204.80;1638.40;;;;;;5095594;28;20048;-69
2021/04/04 00:55:07;;;;;;;10.60;6.47;;;204.80;1664.00;;;;;;5095446;28;20036;-78
2021/04/04 00:57:34;;;;;;;13.50;6.93;;;204.80;1638.40;;;;;;5095452;28;20020;-76
2021/04/04 01:00:07;;;;;;;8.55;6.47;;;204.80;1638.40;;;;;;5094984;28;20020;-73
2021/04/04 01:02:33;;;;;;;11.57;7.70;;;204.80;1638.40;;;;;;5095290;28;20085;-69
2021/04/04 01:05:00;;;;;;;12.57;7.82;;;204.80;1638.40;;;;;;5095323;28;20028;-69
2021/04/04 01:07:27;;;;;;;14.50;7.40;;;204.90;1664.00;;;;;;5095293;28;20024;-75
2021/04/04 01:09:53;;;;;;;15.70;7.75;;;204.90;1664.00;;;;;;5095200;28;20111;-75
2021/04/04 01:12:38;;;;;;;15.85;8.45;;;204.90;1664.00;;;;;;5094844;28;20035;-68
2021/04/04 01:15:10;;;;;;;21.50;10.57;;;204.90;1664.00;;;;;;5094779;28;20047;-68
2021/04/04 01:17:37;;;;;;;15.45;8.10;;;204.90;1638.40;;;;;;5094520;28;20028;-76
2021/04/04 01:20:14;;;;;;;12.93;8.02;;;204.90;1638.40;;;;;;5093384;28;20035;-76
2021/04/04 01:22:57;;;;;;;12.95;7.90;;;204.90;1638.40;;;;;;5094827;28;20051;-69
2021/04/04 01:25:38;;;;;;;15.48;7.95;;;205.00;1638.40;;;;;;5093464;28;20020;-69
2021/04/04 01:28:19;;;;;;;11.15;7.30;;;205.00;1664.00;;;;;;5095000;28;20346;-69
2021/04/04 01:30:48;;;;;;;14.65;7.63;;;205.00;1664.00;;;;;;5094847;28;20020;-69
2021/04/04 01:33:16;;;;;;;10.68;7.32;;;205.00;1638.40;;;;;;5094707;28;20027;-76
2021/04/04 01:35:49;;;;;;;10.35;6.78;;;204.90;1638.40;;;;;;5094623;28;20020;-74
2021/04/04 01:38:22;;;;;;;13.02;6.72;;;204.90;1638.40;;;;;;5094513;28;20397;-76
2021/04/04 01:40:52;;;;;;;10.15;6.43;;;204.90;1638.40;;;;;;5093269;28;20067;-76
2021/04/04 01:43:18;;;;;;;10.38;6.53;;;204.80;1638.40;;;;;;5094723;28;20027;-76
2021/04/04 01:45:45;;;;;;;10.30;6.82;;;204.80;1638.40;;;;;;5092942;28;20024;-75
2021/04/04 01:48:14;;;;;;;9.23;6.80;;;204.80;1638.40;;;;;;5094122;28;20028;-76
2021/04/04 01:50:42;;;;;;;11.82;7.70;;;204.80;1664.00;;;;;;5094656;28;20020;-76
2021/04/04 01:53:10;;;;;;;15.13;7.03;;;204.80;1664.00;;;;;;5094715;28;20024;-72
2021/04/04 01:55:38;;;;;;;15.07;8.52;;;204.80;1664.00;;;;;;5094421;28;20381;-75
2021/04/04 01:58:07;;;;;;;14.52;9.52;;;204.80;1664.00;;;;;;5094493;28;20066;-76
2021/04/04 02:00:34;;;;;;;19.33;11.00;;;204.80;1664.00;;;;;;5094141;28;20036;-76
2021/04/04 02:03:01;;;;;;;21.88;12.80;;;180.10;1664.00;;;;;;5094278;28;20027;-70
2021/04/04 02:05:27;;;;;;;18.80;11.02;;;180.10;1664.00;;;;;;5094207;28;20031;-68
2021/04/04 02:07:55;;;;;;;17.95;11.05;;;204.80;1664.00;;;;;;5094558;28;20473;-69
2021/04/04 02:10:27;;;;;;;19.73;11.40;;;204.80;1689.60;;;;;;5094022;28;20024;-74
2021/04/04 02:12:58;;;;;;;16.60;10.43;;;180.10;1689.60;;;;;;5093972;28;20042;-75
2021/04/04 02:15:27;;;;;;;19.70;10.48;;;180.10;1689.60;;;;;;5094169;28;20024;-68
2021/04/04 02:17:54;;;;;;;14.77;9.75;;;180.10;1689.60;;;;;;5093997;28;20035;-70
2021/04/04 02:20:23;;;;;;;13.52;8.98;;;180.10;1689.60;;;;;;5094014;28;20047;-73
2021/04/04 02:22:50;;;;;;;15.15;8.55;;;180.10;1689.60;;;;;;5093927;28;20024;-76
2021/04/04 02:25:16;;;;;;;11.32;7.82;;;204.80;1689.60;;;;;;5093625;28;20027;-69
2021/04/04 02:27:44;;;;;;;12.20;7.68;;;204.80;1689.60;;;;;;5093775;28;20535;-68
2021/04/04 02:30:13;;;;;;;9.65;6.65;;;204.80;1689.60;;;;;;5093803;28;20079;-68
2021/04/04 02:32:43;;;;;;;11.05;7.78;;;204.80;1689.60;;;;;;5109415;28;20028;-68
2021/04/04 02:35:11;;;;;;;13.20;8.20;;;204.80;1689.60;;;;;;5093958;28;20027;-69
2021/04/04 02:37:38;;;;;;;12.45;7.93;;;204.80;1689.60;;;;;;5093580;28;20048;-69
2021/04/04 02:40:06;;;;;;;12.43;8.38;;;204.80;1689.60;;;;;;5093665;28;20030;-74
2021/04/04 02:42:33;;;;;;;17.15;8.93;;;204.80;1715.20;;;;;;5093543;28;20481;-69
2021/04/04 02:45:01;;;;;;;12.00;8.07;;;180.10;1715.20;;;;;;5093808;28;20044;-68
2021/04/04 02:47:36;;;;;;;14.10;8.43;;;180.10;1715.20;;;;;;5093650;28;20050;-73
2021/04/04 02:50:03;;;;;;;15.32;9.65;;;180.10;1715.20;;;;;;5094086;28;20027;-70
2021/04/04 02:52:34;;;;;;;19.25;11.98;;;204.80;1740.80;;;;;;5093674;28;20036;-75
2021/04/04 02:55:00;;;;;;;23.42;14.77;;;204.80;1740.80;;;;;;5093348;28;20115;-74
2021/04/04 02:57:28;;;;;;;23.50;14.32;;;204.80;1740.80;;;;;;5093773;28;20386;-69
2021/04/04 03:00:00;;;;;;;20.33;13.25;;;204.80;1740.80;;;;;;5093955;28;20040;-69
2021/04/04 03:02:27;;;;;;;17.70;11.68;;;204.80;1740.80;;;;;;5093531;28;20032;-67
2021/04/04 03:04:56;;;;;;;18.60;12.73;;;204.80;1766.40;;;;;;5093623;28;20102;-74
2021/04/04 03:07:26;;;;;;;24.02;14.82;;;204.80;1740.80;;;;;;5093659;28;20337;-69
2021/04/04 03:09:54;;;;;;;29.17;15.55;;;204.80;1740.80;;;;;;5093597;28;20131;-69
2021/04/04 03:12:22;;;;;;;21.13;13.80;;;204.80;1740.80;;;;;;5093436;28;20028;-73
2021/04/04 03:14:51;;;;;;;20.85;13.25;;;204.80;1766.40;;;;;;5093577;28;20032;-69
2021/04/04 03:17:18;;;;;;;21.73;14.75;;;204.80;1766.40;;;;;;5093329;28;20081;-68
2021/04/04 03:19:46;;;;;;;23.10;16.15;;;204.80;1766.40;;;;;;5093293;28;20118;-69
2021/04/04 03:22:12;;;;;;;21.35;14.57;;;204.80;1766.40;;;;;;5091580;28;20040;-68
2021/04/04 03:24:40;;;;;;;19.00;13.00;;;204.80;1766.40;;;;;;5093240;28;20051;-69
2021/04/04 03:27:07;;;;;;;16.48;12.38;;;204.80;1766.40;;;;;;5093288;28;20024;-69
2021/04/04 03:29:34;;;;;;;20.50;12.73;;;204.80;1766.40;;;;;;5092885;28;20069;-74
2021/04/04 03:32:03;;;;;;;17.60;11.75;;;204.80;1766.40;;;;;;5093152;28;20032;-69
2021/04/04 03:34:30;;;;;;;14.88;10.63;;;204.80;1766.40;;;;;;5093302;28;20024;-74
2021/04/04 03:36:56;;;;;;;16.02;10.60;;;204.80;1792.00;;;;;;5092973;28;20055;-69
2021/04/04 03:39:23;;;;;;;17.08;10.52;;;204.80;1792.00;;;;;;5092380;28;20028;-74
2021/04/04 03:41:50;;;;;;;14.95;10.50;;;204.80;1766.40;;;;;;5096666;28;20093;-70
2021/04/04 03:44:21;;;;;;;12.43;9.07;;;204.90;1792.00;;;;;;5097068;28;20028;-75
2021/04/04 03:46:49;;;;;;;16.33;10.35;;;204.90;1792.00;;;;;;5096937;28;20039;-70
2021/04/04 03:49:16;;;;;;;14.30;9.48;;;204.90;1792.00;;;;;;5096829;28;20030;-69
2021/04/04 03:51:43;;;;;;;12.05;8.50;;;204.90;1792.00;;;;;;5096782;28;20046;-74
2021/04/04 03:54:12;;;;;;;10.55;8.07;;;204.90;1792.00;;;;;;5096827;28;20073;-76
2021/04/04 03:56:41;;;;;;;10.98;7.07;;;205.00;1792.00;;;;;;5096808;28;20073;-75
2021/04/04 03:59:11;;;;;;;14.82;7.10;;;205.00;1792.00;;;;;;5096315;28;20016;-74
2021/04/04 04:01:40;;;;;;;10.15;6.97;;;205.00;1792.00;;;;;;5096407;28;20032;-68
2021/04/04 04:04:10;;;;;;;9.52;7.32;;;205.00;1792.00;;;;;;5094540;28;20066;-68
2021/04/04 04:06:39;;;;;;;9.48;6.80;;;205.00;1792.00;;;;;;5094725;28;20032;-76
2021/04/04 04:09:07;;;;;;;10.82;6.90;;;205.10;1792.00;;;;;;5096139;28;20457;-75
2021/04/04 04:11:35;;;;;;;10.43;7.05;;;205.10;1792.00;;;;;;5096191;28;20027;-71
2021/04/04 04:14:01;;;;;;;9.95;7.55;;;205.10;1792.00;;;;;;5096291;28;20017;-74
2021/04/04 04:16:28;;;;;;;9.57;6.53;;;205.20;1792.00;;;;;;5096263;28;20052;-68
2021/04/04 04:18:54;;;;;;;9.45;6.38;;;205.20;1792.00;;;;;;5096290;28;20095;-76
2021/04/04 04:21:21;;;;;;;8.10;6.55;;;205.20;1792.00;;;;;;5096132;28;20024;-69
2021/04/04 04:23:48;;;;;;;13.52;7.03;;;205.20;1792.00;;;;;;5095846;28;20035;-69
2021/04/04 04:26:16;;;;;;;9.55;6.95;;;205.20;1766.40;;;;;;5095877;28;20016;-75
2021/04/04 04:28:42;;;;;;;13.38;6.68;;;205.30;1766.40;;;;;;5096078;28;20016;-75
2021/04/04 04:31:28;;;;;;;10.43;7.05;;;205.30;1766.40;;;;;;5095873;28;20485;-74
2021/04/04 04:33:56;;;;;;;8.60;5.88;;;205.30;1766.40;;;;;;5095251;28;20024;-75
2021/04/04 04:36:23;;;;;;;7.68;5.35;;;205.30;1740.80;;;;;;5094389;28;20082;-67
2021/04/04 04:38:51;;;;;;;9.32;5.53;;;205.30;1740.80;;;;;;5096082;28;20492;-75
2021/04/04 04:41:17;;;;;;;8.38;5.00;;;205.30;1740.80;;;;;;5095619;28;20384;-68
2021/04/04 04:43:46;;;;;;;7.53;4.90;;;205.30;1740.80;;;;;;5095374;28;20028;-68
2021/04/04 04:46:14;;;;;;;7.10;4.78;;;205.20;1740.80;;;;;;5095531;28;20032;-69
2021/04/04 04:48:40;;;;;;;7.28;4.97;;;205.20;1740.80;;;;;;5093883;28;20473;-68
2021/04/04 04:51:36;;;;;;;7.50;4.47;;;205.20;1740.80;;;;;;5094394;28;20115;-76
2021/04/04 04:54:03;;;;;;;;;;;205.20;1740.80;;;;;;5095973;28;20032;-71
2021/04/04 04:56:29;;;;;;;6.53;4.53;;;205.20;1740.80;;;;;;5095477;28;20336;-67
2021/04/04 04:58:56;;;;;;;7.90;4.82;;;205.20;1740.80;;;;;;5095451;28;20059;-68
2021/04/04 05:01:25;;;;;;;8.65;4.97;;;205.10;1740.80;;;;;;5095422;28;20039;-69
2021/04/04 05:03:51;;;;;;;6.13;4.18;;;205.10;1740.80;;;;;;5095397;28;20028;-75
2021/04/04 05:06:18;;;;;;;7.82;4.68;;;205.20;1740.80;;;;;;5093956;28;20404;-69
2021/04/04 05:08:46;;;;;;;7.15;5.25;;;205.20;1766.40;;;;;;5095154;28;20039;-68
2021/04/04 05:11:18;;;;;;;9.90;6.50;;;205.20;1740.80;;;;;;5095147;28;20027;-68
2021/04/04 05:13:45;;;;;;;9.98;6.35;;;205.20;1766.40;;;;;;5095028;28;20052;-75
2021/04/04 05:16:12;;;;;;;12.57;7.93;;;205.30;1766.40;;;;;;5094720;28;20101;-68
2021/04/04 05:18:49;;;;;;;13.00;8.05;;;205.30;1740.80;;;;;;5095116;28;20090;-73
2021/04/04 05:21:25;;;;;;;13.25;8.48;;;205.30;1740.80;;;;;;5095002;28;20085;-69
2021/04/04 05:23:58;;;;;;;14.05;8.00;;;205.40;1766.40;;;;;;5094885;28;20024;-68
2021/04/04 05:26:29;;;;;;;12.50;7.78;;;205.40;1766.40;;;;;;5093483;28;20032;-75
2021/04/04 05:29:05;;;;;;;10.27;6.85;;;205.50;1740.80;;;;;;5094910;28;20024;-68
2021/04/04 05:31:31;;;;;;;13.15;8.15;;;205.50;1740.80;;;;;;5094722;28;20055;-76
2021/04/04 05:33:58;;;;;;;10.95;7.45;;;205.50;1740.80;;;;;;5094589;28;20058;-76
2021/04/04 05:36:24;;;;;;;11.38;7.68;;;205.60;1740.80;;;;;;5094408;28;20040;-75
2021/04/04 05:38:57;;;;;;;11.57;8.32;;;205.50;1766.40;;;;;;5094715;28;20028;-69
2021/04/04 05:41:27;;;;;;;17.05;7.75;;;205.50;1766.40;;;;;;5094498;28;20462;-68
2021/04/04 05:43:59;;;;;;;10.05;7.60;;;205.50;1766.40;;;;;;5094269;28;20463;-69
2021/04/04 05:46:30;;;;;;;11.25;8.13;;;205.50;1766.40;;;;;;5094438;28;20034;-68
2021/04/04 05:49:04;;;;;;;12.90;9.02;;;205.60;1740.80;;;;;;5094516;28;20024;-68
2021/04/04 05:52:01;;;;;;;22.35;12.10;;;205.70;1766.40;;;;;;5092857;28;20028;-70
2021/04/04 05:55:02;;;;;;;17.83;11.52;;;205.70;1766.40;;;;;;5094564;28;20069;-68
2021/04/04 05:57:35;;;;;;;16.50;10.75;;;230.40;1740.80;;;;;;5093872;28;20028;-68
2021/04/04 06:00:04;;;;;;;17.33;10.55;;;230.40;1740.80;;;;;;5092905;28;20020;-69
2021/04/04 06:03:11;;;;;;;24.20;13.80;;;205.70;1740.80;;;;;;5092509;28;20033;-77
2021/04/04 06:06:02;;;;;;;30.00;15.00;;;230.50;1740.80;;;;;;4995882;28;20033;-69
2021/04/04 06:08:55;;;;;;;41.35;25.50;;;230.50;1740.80;;;;;;4995672;28;20526;-69
2021/04/04 06:11:51;;;;;;;41.22;20.30;;;230.50;1715.20;;;;;;5012115;28;20025;-76
2021/04/04 06:14:39;;;;;;;39.47;19.02;;;230.60;1715.20;;;;;;5012194;28;20049;-76
2021/04/04 06:17:35;;;;;;;30.17;16.50;;;230.60;1715.20;;;;;;5011626;28;20029;-75
2021/04/04 06:20:07;;;;;;;;;;;230.70;1715.20;;;;;;4954084;29;20039;-69
2021/04/04 06:22:35;;;;;;;30.65;14.52;;;230.70;1689.60;;;;;;4953742;29;19914;-68
2021/04/04 06:25:18;;;;;;;46.35;19.60;;;230.70;1689.60;;;;;;4953672;29;20035;-76
2021/04/04 06:28:12;;;;;;;39.58;17.52;;;230.80;1689.60;;;;;;4953757;29;20058;-68
2021/04/04 06:30:49;;;;;;;30.38;15.48;;;230.80;1689.60;;;;;;4953483;28;20470;-69
2021/04/04 06:33:26;;;;;;;27.50;14.68;;;230.90;1715.20;;;;;;4953638;29;20134;-75
2021/04/04 06:36:09;;;;;;;25.35;14.02;;;230.90;1715.20;;;;;;4953570;29;20028;-69
2021/04/04 06:39:02;;;;;;;25.80;13.88;;;230.90;1715.20;;;;;;4962674;28;20043;-75
2021/04/04 06:41:28;;;;;;;23.75;13.40;;;230.90;1715.20;;;;;;5031602;28;20033;-70
2021/04/04 06:44:03;;;;;;;19.80;11.20;;;231.00;1715.20;;;;;;5031530;28;20541;-69
2021/04/04 06:46:47;;;;;;;;;;;231.00;1689.60;;;;;;5032006;28;20059;-69
2021/04/04 06:49:40;;;;;;;21.92;11.20;;;231.00;1689.60;;;;;;5031417;28;19905;-69
2021/04/04 06:52:49;;;;;;;19.15;9.82;;;231.00;1689.60;;;;;;5031478;28;20485;-70
2021/04/04 06:55:29;;;;;;;22.75;11.88;;;231.00;1689.60;;;;;;5030266;28;20029;-70
2021/04/04 06:58:20;;;;;;;26.02;13.05;;;231.00;1689.60;;;;;;5092110;28;20036;-69
2021/04/04 07:01:18;;;;;;;23.35;12.13;;;231.10;1689.60;;;;;;5093582;28;20103;-70
2021/04/04 07:03:54;;;;;;;22.08;10.70;;;231.00;1689.60;;;;;;5093792;28;20016;-72
2021/04/04 07:06:26;;;;;;;26.50;12.98;;;231.00;1715.20;;;;;;5093655;28;20020;-69
2021/04/04 07:09:29;;;;;;;23.33;12.40;;;231.00;1715.20;;;;;;5093599;28;20475;-70
2021/04/04 07:12:39;;;;;;;21.75;11.93;;;231.00;1715.20;;;;;;5092244;28;20513;-73
2021/04/04 07:15:08;;;;;;;16.60;9.88;;;231.00;1740.80;;;;;;5096310;28;20035;-74
2021/04/04 07:18:01;;;;;;;16.00;10.20;;;231.00;1740.80;;;;;;5097296;28;20031;-74
2021/04/04 07:21:06;;;;;;;12.45;8.13;;;231.00;1740.80;;;;;;5097468;28;20475;-69
2021/04/04 07:24:07;;;;;;;10.68;8.00;;;231.10;1715.20;;;;;;5096896;28;20032;-69
2021/04/04 07:26:48;;;;;;;10.48;7.32;;;231.20;1740.80;;;;;;5097295;28;20378;-74
2021/04/04 07:29:45;;;;;;;11.20;7.45;;;231.30;1715.20;;;;;;5095930;28;20032;-74
2021/04/04 07:32:18;;;;;;;13.50;8.15;;;256.00;1715.20;;;;;;5097170;28;20089;-70
2021/04/04 07:34:57;;;;;;;11.65;7.72;;;256.10;1715.20;;;;;;5097028;28;20024;-74
2021/04/04 07:37:23;;;;;;;13.52;8.35;;;256.20;1715.20;;;;;;5096754;28;20497;-69
2021/04/04 07:40:09;;;;;;;13.73;8.68;;;256.30;1689.60;;;;;;5095475;28;20054;-74
2021/04/04 07:43:00;;;;;;;13.23;8.52;;;256.40;1689.60;;;;;;5095289;28;20040;-68
2021/04/04 07:45:51;;;;;;;13.77;8.98;;;256.50;1664.00;;;;;;5096877;28;20047;-70
2021/04/04 07:48:19;;;;;;;16.25;9.20;;;256.60;1664.00;;;;;;5096264;28;20107;-69
2021/04/04 07:51:16;;;;;;;19.13;9.70;;;256.60;1638.40;;;;;;5096109;28;20118;-69
2021/04/04 07:54:03;;;;;;;17.13;10.00;;;256.60;1612.80;;;;;;5095118;28;20043;-69
2021/04/04 07:56:40;;;;;;;14.75;8.85;;;256.50;1638.40;;;;;;5094081;28;20016;-70
2021/04/04 07:59:17;;;;;;;20.80;10.93;;;256.50;1612.80;;;;;;5093534;28;20021;-69
2021/04/04 08:02:10;;;;;;;19.45;11.48;;;256.40;1612.80;;;;;;5096341;28;20351;-72
2021/04/04 08:05:00;;;;;;;20.58;11.98;;;256.40;1612.80;;;;;;5092837;28;20101;-71
2021/04/04 08:07:32;;;;;;;24.05;13.38;;;256.30;1612.80;;;;;;5096615;28;20377;-75
2021/04/04 08:13:21;;;;;;;36.13;23.63;;;256.40;1587.20;;;;;;5094325;28;20031;-69
2021/04/04 08:15:49;;;;;;;43.10;21.88;;;256.50;1587.20;;;;;;5096285;28;20088;-69
2021/04/04 08:18:15;;;;;;;34.67;21.73;;;256.60;1587.20;;;;;;5096399;28;20111;-68
2021/04/04 08:20:49;;;;;;;40.50;21.92;;;256.70;1587.20;;;;;;5095855;28;20124;-68
2021/04/04 08:23:23;;;;;;;42.50;28.00;;;256.90;1561.60;;;;;;5095952;28;20043;-74
2021/04/04 08:26:01;;;;;;;70.80;57.08;;;281.70;1561.60;;;;;;5095776;28;20074;-69
2021/04/04 08:28:26;;;;;;;113.53;98.32;;;281.80;1510.40;;;;;;5096018;28;20052;-70
2021/04/04 08:30:56;;;;;;;67.97;54.75;;;282.00;1510.40;;;;;;5096103;28;20438;-73
2021/04/04 08:33:40;;;;;;;58.28;24.83;;;282.20;1484.80;;;;;;5095969;28;20023;-69
2021/04/04 08:36:08;;;;;;;22.63;13.43;;;282.30;1459.20;;;;;;5095689;28;20020;-74
2021/04/04 08:38:42;;;;;;;25.48;14.50;;;282.50;1433.60;;;;;;5095852;28;20099;-71
2021/04/04 08:41:11;;;;;;;24.27;14.02;;;282.50;1433.60;;;;;;5095360;28;20085;-70
2021/04/04 08:43:40;;;;;;;23.08;15.30;;;307.20;1382.40;;;;;;5095679;28;20448;-68
2021/04/04 08:46:18;;;;;;;23.63;15.77;;;282.50;1382.40;;;;;;5095609;28;20103;-73
2021/04/04 08:48:44;;;;;;;21.13;13.75;;;282.50;1382.40;;;;;;5095672;28;20374;-75
2021/04/04 08:51:14;;;;;;;17.80;11.98;;;282.40;1408.00;;;;;;5095723;28;20386;-75
2021/04/04 08:53:43;;;;;;;13.80;8.90;;;282.40;1408.00;;;;;;5095613;28;20016;-74
2021/04/04 08:56:09;;;;;;;11.23;8.02;;;282.30;1382.40;;;;;;5095238;28;20028;-70
2021/04/04 08:58:40;;;;;;;12.10;7.30;;;282.30;1382.40;;;;;;5095537;28;20043;-69
2021/04/04 09:01:31;;;;;;;9.60;7.35;;;282.30;1382.40;;;;;;5095058;28;20044;-73
2021/04/04 09:03:59;;;;;;;37.22;17.98;;;282.30;1408.00;;;;;;5032990;28;20025;-73
2021/04/04 09:06:34;;;;;;;26.73;13.88;;;282.30;1408.00;;;;;;5029763;28;20104;-74
2021/04/04 09:09:00;;;;;;;;;;;282.40;1408.00;;;;;;5031826;28;20437;-69
2021/04/04 09:11:27;;;;;;;22.17;15.27;;;282.50;1382.40;;;;;;5031860;28;19917;-69
2021/04/04 09:13:59;;;;;;;27.13;15.98;;;282.50;1382.40;;;;;;5031953;28;20394;-73
2021/04/04 09:16:24;;;;;;;29.48;15.88;;;282.50;1356.80;;;;;;5031397;28;20030;-69
2021/04/04 09:18:52;;;;;;;22.15;12.60;;;282.50;1356.80;;;;;;5031383;28;20095;-71
2021/04/04 09:21:22;;;;;;;23.85;13.90;;;307.20;1408.00;;;;;;5031537;28;20143;-69
2021/04/04 09:23:49;;;;;;;20.95;12.65;;;307.20;1408.00;;;;;;5031316;28;20033;-69
2021/04/04 09:26:18;;;;;;;17.13;9.88;;;307.20;1408.00;;;;;;5031516;28;20025;-73
2021/04/04 09:28:45;;;;;;;8.98;7.13;;;307.30;1382.40;;;;;;5031164;28;20065;-74
2021/04/04 09:31:25;;;;;;;11.35;7.88;;;307.30;1382.40;;;;;;5031402;28;20021;-69
2021/04/04 09:34:08;;;;;;;13.13;8.05;;;307.30;1382.40;;;;;;5032835;28;20045;-69
2021/04/04 09:36:47;;;;;;;17.17;9.75;;;307.30;1382.40;;;;;;5031719;28;20049;-70
2021/04/04 09:39:16;;;;;;;19.25;11.75;;;307.40;1382.40;;;;;;5032448;28;20092;-69
2021/04/04 09:41:43;;;;;;;22.08;15.13;;;307.40;1382.40;;;;;;5082952;28;20036;-70
2021/04/04 09:44:09;;;;;;;18.05;11.52;;;307.50;1382.40;;;;;;5094460;28;20032;-70
2021/04/04 09:46:59;;;;;;;18.02;12.18;;;307.60;1356.80;;;;;;5093986;28;20016;-69
2021/04/04 09:49:35;;;;;;;22.73;13.63;;;307.70;1356.80;;;;;;5094618;28;20077;-71
2021/04/04 09:52:23;;;;;;;23.17;14.93;;;307.80;1356.80;;;;;;5094384;28;20027;-71
2021/04/04 09:55:08;;;;;;;20.08;14.50;;;307.90;1331.20;;;;;;5094283;28;20465;-69
2021/04/04 09:57:44;;;;;;;20.67;14.45;;;307.90;1331.20;;;;;;5094384;28;20024;-70
2021/04/04 10:00:29;;;;;;;17.50;12.00;;;307.90;1331.20;;;;;;5094114;28;20028;-70
2021/04/04 10:02:57;;;;;;;15.00;10.63;;;308.00;1305.60;;;;;;5094256;28;20043;-69
2021/04/04 10:05:28;;;;;;;15.35;9.52;;;308.10;1305.60;;;;;;5092578;28;20031;-69
2021/04/04 10:07:55;;;;;;;14.15;9.82;;;308.10;1305.60;;;;;;5094369;28;20028;-69
2021/04/04 10:10:31;;;;;;;18.27;11.63;;;308.00;1305.60;;;;;;5092871;28;20036;-69
2021/04/04 10:12:59;;;;;;;23.60;14.30;;;308.10;1305.60;;;;;;5093828;28;20028;-69
2021/04/04 10:15:25;;;;;;;24.25;15.45;;;308.00;1305.60;;;;;;5092930;28;20055;-71
2021/04/04 10:17:58;;;;;;;22.13;14.38;;;308.00;1305.60;;;;;;5094091;28;20035;-69
2021/04/04 10:20:36;;;;;;;27.10;16.92;;;308.00;1305.60;;;;;;5094158;28;20028;-69
2021/04/04 10:23:02;;;;;;;27.42;17.90;;;307.90;1331.20;;;;;;5093979;28;20032;-69
2021/04/04 10:25:28;;;;;;;28.52;18.00;;;308.00;1331.20;;;;;;5093944;28;20031;-69
2021/04/04 10:28:03;;;;;;;28.98;17.50;;;308.00;1331.20;;;;;;5093985;28;20020;-69
2021/04/04 10:30:30;;;;;;;21.27;14.00;;;308.00;1331.20;;;;;;5094073;28;20042;-69
2021/04/04 10:33:23;;;;;;;29.58;19.58;;;308.00;1331.20;;;;;;5094093;28;20027;-69
2021/04/04 10:35:50;;;;;;;32.80;21.75;;;308.00;1331.20;;;;;;5091156;28;20032;-75
2021/04/04 10:38:24;;;;;;;34.63;22.20;;;308.00;1331.20;;;;;;5093811;28;20580;-72
2021/04/04 10:40:55;;;;;;;34.70;19.20;;;308.10;1331.20;;;;;;5093493;28;20027;-73
2021/04/04 10:43:23;;;;;;;26.15;16.35;;;332.80;1356.80;;;;;;5093709;28;20028;-70
2021/04/04 10:46:07;;;;;;;22.88;14.38;;;332.90;1356.80;;;;;;5093857;28;20028;-68
2021/04/04 10:48:39;;;;;;;23.83;14.00;;;333.00;1356.80;;;;;;5094031;28;20047;-69
2021/04/04 10:51:07;;;;;;;19.38;11.88;;;333.10;1356.80;;;;;;5098197;28;20416;-70
2021/04/04 10:53:33;;;;;;;23.75;12.57;;;333.10;1356.80;;;;;;5097756;28;20537;-70
2021/04/04 10:56:00;;;;;;;20.88;12.65;;;333.20;1331.20;;;;;;5097630;28;20031;-69
2021/04/04 10:58:26;;;;;;;15.85;10.68;;;333.30;1331.20;;;;;;5097714;28;20032;-69
2021/04/04 11:00:54;;;;;;;15.35;9.68;;;333.30;1331.20;;;;;;5097620;28;20445;-69
2021/04/04 11:03:21;;;;;;;14.02;9.18;;;333.30;1331.20;;;;;;5097711;28;20032;-69
2021/04/04 11:05:48;;;;;;;13.32;9.05;;;333.30;1305.60;;;;;;5097244;28;20031;-69
2021/04/04 11:08:14;;;;;;;12.27;8.10;;;333.20;1305.60;;;;;;5097777;28;20023;-72
2021/04/04 11:10:40;;;;;;;18.23;11.10;;;333.20;1305.60;;;;;;5097751;28;20024;-76
2021/04/04 11:13:06;;;;;;;22.35;12.57;;;333.20;1331.20;;;;;;5097613;28;20470;-69
2021/04/04 11:15:37;;;;;;;18.95;11.82;;;333.20;1331.20;;;;;;5097637;28;20023;-69
2021/04/04 11:18:14;;;;;;;18.17;9.43;;;333.20;1331.20;;;;;;5097471;28;20052;-70
2021/04/04 11:20:46;;;;;;;27.95;12.40;;;333.20;1305.60;;;;;;5096072;28;20024;-73
2021/04/04 11:23:17;;;;;;;50.90;29.55;;;333.10;1331.20;;;;;;5094596;28;20043;-69
2021/04/04 11:25:43;;;;;;;42.78;27.17;;;333.00;1331.20;;;;;;5093549;28;20078;-70
2021/04/04 11:28:20;;;;;;;29.50;18.55;;;332.90;1356.80;;;;;;5095544;28;20404;-71
2021/04/04 11:30:50;;;;;;;21.88;13.82;;;332.80;1356.80;;;;;;5093971;28;20031;-70
2021/04/04 11:33:16;;;;;;;17.05;10.63;;;308.10;1331.20;;;;;;5096117;28;20028;-69
2021/04/04 11:36:06;;;;;;;16.30;10.35;;;308.00;1331.20;;;;;;5095959;28;20012;-73
2021/04/04 11:38:34;;;;;;;18.45;11.25;;;308.00;1331.20;;;;;;5053760;28;20033;-70
2021/04/04 11:41:24;;;;;;;18.38;11.57;;;308.00;1331.20;;;;;;5054367;28;20017;-73
2021/04/04 11:43:52;;;;;;;21.00;11.25;;;308.00;1356.80;;;;;;5054816;28;20033;-71
2021/04/04 11:46:55;;;;;;;14.80;8.77;;;308.10;1356.80;;;;;;5054721;28;20021;-70
2021/04/04 11:49:32;;;;;;;10.98;7.72;;;308.10;1331.20;;;;;;5054509;28;20437;-70
2021/04/04 11:52:01;;;;;;;13.00;8.38;;;308.10;1331.20;;;;;;5054601;28;20030;-70
2021/04/04 11:54:44;;;;;;;15.90;9.98;;;332.80;1356.80;;;;;;5051962;28;20112;-69
2021/04/04 11:57:11;;;;;;;16.77;11.82;;;332.80;1356.80;;;;;;5053509;28;20021;-70
2021/04/04 11:59:37;;;;;;;16.48;10.23;;;332.90;1331.20;;;;;;5054585;28;20419;-69
2021/04/04 12:02:03;;;;;;;16.52;11.52;;;332.90;1331.20;;;;;;5054879;28;20024;-71
2021/04/04 12:04:43;;;;;;;13.70;8.77;;;332.90;1331.20;;;;;;5053361;28;20025;-70
2021/04/04 12:07:14;;;;;;;17.33;10.15;;;332.90;1331.20;;;;;;5052084;28;20094;-70
2021/04/04 12:09:43;;;;;;;21.52;13.02;;;333.00;1331.20;;;;;;5054076;28;20025;-69
2021/04/04 12:12:10;;;;;;;27.00;15.82;;;333.00;1331.20;;;;;;5054726;28;20017;-70
2021/04/04 12:14:54;;;;;;;24.23;15.85;;;333.00;1331.20;;;;;;5055018;28;20514;-68
2021/04/04 12:17:26;;;;;;;20.45;12.68;;;333.10;1331.20;;;;;;5049442;28;20040;-70
2021/04/04 12:19:52;;;;;;;15.38;9.68;;;333.10;1331.20;;;;;;5056248;28;20021;-70
2021/04/04 12:22:19;;;;;;;14.55;9.57;;;333.10;1305.60;;;;;;5055672;28;20029;-70
2021/04/04 12:24:49;;;;;;;13.88;9.05;;;333.10;1305.60;;;;;;5055836;28;20029;-71
2021/04/04 12:27:17;;;;;;;14.07;9.38;;;333.10;1305.60;;;;;;5055944;28;20508;-79
2021/04/04 12:29:51;;;;;;;12.27;8.80;;;333.10;1305.60;;;;;;5055799;28;20417;-73
2021/04/04 12:32:19;;;;;;;15.13;9.63;;;333.10;1305.60;;;;;;5055865;28;20116;-70
2021/04/04 12:34:47;;;;;;;12.98;9.75;;;333.10;1305.60;;;;;;5056044;28;20048;-79
2021/04/04 12:37:15;;;;;;;12.77;8.93;;;333.10;1305.60;;;;;;5075403;28;20370;-70